createdAt,value
2018-04-15T05:30:06.929Z,12.90
2018-04-15T05:32:39.130Z,12.80
2018-04-15T05:35:11.006Z,12.90
2018-04-15T05:37:42.887Z,12.90
2018-04-15T05:40:14.776Z,12.90
2018-04-15T05:42:46.681Z,12.80
2018-04-15T05:45:18.553Z,12.80
2018-04-15T05:47:50.454Z,12.90
2018-04-15T05:50:22.330Z,12.90
2018-04-15T05:52:54.230Z,12.90
2018-04-15T05:55:26.116Z,12.90
2018-04-15T05:57:57.997Z,12.90
2018-04-15T06:00:29.891Z,12.90
2018-04-15T06:03:02.560Z,12.90
2018-04-15T06:05:35.206Z,12.90
2018-04-15T06:08:07.081Z,12.80
2018-04-15T06:10:38.967Z,12.90
2018-04-15T06:13:10.867Z,12.90
2018-04-15T06:15:43.510Z,12.90
2018-04-15T06:18:15.391Z,12.90
2018-04-15T06:20:47.265Z,12.90
2018-04-15T06:23:19.161Z,12.90
2018-04-15T06:25:51.046Z,12.90
2018-04-15T06:28:23.693Z,13.00
2018-04-15T06:30:55.573Z,12.90
2018-04-15T06:33:28.258Z,13.20
2018-04-15T06:36:00.884Z,13.30
2018-04-15T06:38:32.846Z,13.30
2018-04-15T06:41:04.727Z,13.40
2018-04-15T06:43:36.827Z,13.50
2018-04-15T06:46:09.004Z,13.70
2018-04-15T06:48:40.913Z,13.90
2018-04-15T06:51:12.782Z,14.10
2018-04-15T06:53:44.665Z,14.30
2018-04-15T06:56:17.562Z,15.70
2018-04-15T06:58:49.441Z,15.70
2018-04-15T07:01:21.314Z,17.30
2018-04-15T07:03:53.193Z,19.60
2018-04-15T07:06:25.311Z,19.90
2018-04-15T07:08:57.189Z,20.50
2018-04-15T07:11:29.061Z,20.30
2018-04-15T07:14:00.970Z,19.80
2018-04-15T07:16:33.626Z,18.70
2018-04-15T07:19:05.503Z,18.70
2018-04-15T07:21:37.380Z,18.50
2018-04-15T07:24:10.027Z,18.70
2018-04-15T07:26:41.904Z,18.70
2018-04-15T07:29:14.562Z,20.60
2018-04-15T07:31:46.440Z,20.60
2018-04-15T07:34:19.095Z,21.80
2018-04-15T07:36:51.223Z,21.80
2018-04-15T07:39:23.110Z,22.00
2018-04-15T07:41:54.976Z,22.60
2018-04-15T07:44:26.867Z,23.20
2018-04-15T07:46:59.536Z,22.80
2018-04-15T07:49:31.426Z,22.80
2018-04-15T07:52:03.309Z,22.00
2018-04-15T07:54:35.207Z,21.00
2018-04-15T07:57:07.094Z,20.10
2018-04-15T07:59:39.753Z,18.80
2018-04-15T08:02:11.618Z,18.80
2018-04-15T08:04:44.278Z,18.70
2018-04-15T08:07:16.161Z,18.60
2018-04-15T08:09:48.828Z,18.70
2018-04-15T08:12:20.711Z,18.60
2018-04-15T08:14:53.362Z,18.20
2018-04-15T08:17:25.235Z,18.20
2018-04-15T08:19:57.122Z,18.10
2018-04-15T08:22:29.010Z,18.00
2018-04-15T08:25:01.148Z,17.80
2018-04-15T08:27:33.313Z,17.60
2018-04-15T08:30:05.195Z,17.70
2018-04-15T08:32:37.338Z,17.60
2018-04-15T08:35:09.234Z,17.60
2018-04-15T08:37:41.099Z,17.80
2018-04-15T08:40:13.043Z,17.90
2018-04-15T08:42:44.907Z,18.00
2018-04-15T08:45:16.788Z,18.20
2018-04-15T08:47:48.662Z,18.30
2018-04-15T08:50:20.551Z,18.40
2018-04-15T08:52:53.417Z,18.60
2018-04-15T08:55:25.301Z,18.60
2018-04-15T08:57:57.182Z,18.60
2018-04-15T09:00:29.071Z,18.50
2018-04-15T09:03:00.941Z,18.50
2018-04-15T09:05:32.898Z,18.60
2018-04-15T09:08:04.782Z,18.80
2018-04-15T09:10:38.273Z,19.20
2018-04-15T09:13:10.141Z,19.20
2018-04-15T09:15:42.790Z,19.10
2018-04-15T09:18:14.764Z,19.00
2018-04-15T09:20:46.674Z,19.00
2018-04-15T09:23:18.670Z,18.80
2018-04-15T09:25:50.558Z,18.90
2018-04-15T09:28:22.432Z,18.90
2018-04-15T09:30:55.159Z,18.90
2018-04-15T09:33:27.050Z,18.90
2018-04-15T09:35:58.946Z,18.80
2018-04-15T09:38:31.987Z,19.00
2018-04-15T09:41:03.956Z,19.00
2018-04-15T09:43:35.842Z,19.10
2018-04-15T09:46:08.515Z,19.00
2018-04-15T09:48:41.154Z,18.90
2018-04-15T09:51:13.051Z,18.90
2018-04-15T09:53:44.920Z,19.00
2018-04-15T09:56:17.618Z,19.10
2018-04-15T09:58:49.463Z,19.10
2018-04-15T10:01:22.191Z,19.30
2018-04-15T10:03:54.075Z,19.30
2018-04-15T10:06:25.961Z,20.00
2018-04-15T10:08:58.602Z,21.50
2018-04-15T10:11:30.615Z,21.40
2018-04-15T10:14:02.484Z,21.50
2018-04-15T10:16:34.585Z,21.60
2018-04-15T10:19:06.499Z,21.90
2018-04-15T10:21:38.377Z,22.10
2018-04-15T10:24:10.601Z,21.90
2018-04-15T10:26:43.252Z,21.60
2018-04-15T10:29:15.229Z,21.10
2018-04-15T10:31:47.145Z,20.70
2018-04-15T10:34:19.009Z,20.20
2018-04-15T10:36:50.894Z,19.90
2018-04-15T10:39:22.762Z,19.60
2018-04-15T10:41:54.887Z,19.40
2018-04-15T10:44:27.042Z,19.20
2018-04-15T10:46:59.161Z,19.10
2018-04-15T10:49:31.033Z,19.10
2018-04-15T10:52:02.932Z,19.20
2018-04-15T10:54:34.841Z,19.40
2018-04-15T10:57:06.703Z,19.70
2018-04-15T10:59:38.574Z,19.90
2018-04-15T11:02:10.519Z,20.00
2018-04-15T11:04:42.741Z,20.00
2018-04-15T11:07:14.661Z,20.00
2018-04-15T11:09:46.552Z,19.90
2018-04-15T11:12:19.446Z,19.60
2018-04-15T11:14:51.325Z,19.60
2018-04-15T11:17:23.226Z,19.60
2018-04-15T11:19:55.088Z,19.40
2018-04-15T11:22:26.976Z,19.30
2018-04-15T11:24:59.613Z,19.40
2018-04-15T11:27:32.271Z,19.50
2018-04-15T11:30:04.152Z,19.50
2018-04-15T11:32:36.263Z,19.60
2018-04-15T11:35:08.557Z,19.70
2018-04-15T11:37:40.426Z,19.70
2018-04-15T11:40:12.318Z,19.80
2018-04-15T11:42:44.215Z,19.90
2018-04-15T11:45:16.931Z,19.80
2018-04-15T11:47:48.781Z,19.80
2018-04-15T11:50:20.667Z,19.90
2018-04-15T11:52:52.566Z,20.10
2018-04-15T11:55:25.209Z,20.20
2018-04-15T11:57:57.096Z,20.10
2018-04-15T12:00:29.734Z,20.20
2018-04-15T12:03:01.633Z,20.10
2018-04-15T12:05:34.541Z,20.10
2018-04-15T12:08:06.436Z,20.10
2018-04-15T12:10:38.309Z,20.10
2018-04-15T12:13:10.202Z,20.10
2018-04-15T12:15:42.842Z,20.30
2018-04-15T12:18:14.726Z,20.30
2018-04-15T12:20:46.603Z,20.40
2018-04-15T12:23:19.250Z,20.40
2018-04-15T12:25:51.135Z,20.40
2018-04-15T12:28:23.793Z,20.40
2018-04-15T12:30:55.662Z,20.40
2018-04-15T12:33:27.601Z,20.40
2018-04-15T12:35:59.478Z,20.50
2018-04-15T12:38:31.685Z,20.50
2018-04-15T12:41:03.579Z,20.50
2018-04-15T12:43:35.466Z,20.60
2018-04-15T12:46:07.332Z,20.60
2018-04-15T12:48:39.222Z,20.50
2018-04-15T12:51:11.093Z,20.40
2018-04-15T12:53:42.986Z,20.30
2018-04-15T12:56:14.858Z,20.20
2018-04-15T12:58:46.761Z,20.20
2018-04-15T13:01:18.926Z,20.10
2018-04-15T13:03:50.840Z,20.10
2018-04-15T13:06:22.717Z,20.10
2018-04-15T13:08:54.607Z,20.20
2018-04-15T13:11:26.490Z,20.20
2018-04-15T13:13:58.374Z,20.20
2018-04-15T13:16:30.496Z,20.20
2018-04-15T13:19:02.370Z,20.30
2018-04-15T13:21:34.264Z,20.40
2018-04-15T13:24:06.150Z,20.50
2018-04-15T13:26:38.785Z,20.70
2018-04-15T13:29:10.672Z,20.70
2018-04-15T13:31:42.549Z,20.80
2018-04-15T13:34:14.438Z,20.80
2018-04-15T13:36:46.309Z,20.80
2018-04-15T13:39:18.201Z,20.80
2018-04-15T13:41:50.846Z,20.60
2018-04-15T13:44:22.997Z,20.60
2018-04-15T13:46:54.894Z,20.40
2018-04-15T13:49:27.041Z,20.40
2018-04-15T13:51:58.955Z,20.40
2018-04-15T13:54:30.857Z,20.40
2018-04-15T13:57:02.761Z,20.40
2018-04-15T13:59:34.669Z,20.40
2018-04-15T14:02:06.535Z,20.30
2018-04-15T14:04:38.422Z,20.30
2018-04-15T14:07:10.289Z,20.20
2018-04-15T14:09:42.189Z,20.20
2018-04-15T14:12:14.825Z,20.20
2018-04-15T14:14:46.709Z,20.20
2018-04-15T14:17:18.586Z,20.20
2018-04-15T14:19:51.247Z,20.10
2018-04-15T14:22:23.122Z,20.10
2018-04-15T14:24:55.777Z,20.20
2018-04-15T14:27:27.650Z,20.20
2018-04-15T14:29:59.531Z,20.20
2018-04-15T14:32:32.162Z,20.40
2018-04-15T14:35:04.037Z,20.30
2018-04-15T14:37:36.142Z,20.40
2018-04-15T14:40:08.040Z,20.50
2018-04-15T14:42:39.995Z,20.50
2018-04-15T14:45:12.854Z,20.50
2018-04-15T14:47:44.807Z,20.50
2018-04-15T14:50:17.463Z,20.40
2018-04-15T14:52:50.096Z,20.50
2018-04-15T14:55:21.985Z,20.40
2018-04-15T14:57:53.874Z,20.60
2018-04-15T15:00:26.530Z,20.70
2018-04-15T15:02:58.730Z,20.70
2018-04-15T15:05:30.625Z,20.90
2018-04-15T15:08:02.597Z,21.00
2018-04-15T15:10:34.490Z,21.10
2018-04-15T15:13:06.358Z,21.20
2018-04-15T15:15:39.005Z,21.40
2018-04-15T15:18:11.777Z,21.30
2018-04-15T15:20:44.435Z,21.50
2018-04-15T15:23:16.313Z,21.50
2018-04-15T15:25:48.202Z,21.50
2018-04-15T15:28:20.148Z,21.50
2018-04-15T15:30:52.726Z,21.30
2018-04-15T15:33:24.601Z,21.30
2018-04-15T15:35:56.797Z,21.40
2018-04-15T15:38:28.745Z,21.30
2018-04-15T15:41:00.626Z,21.30
2018-04-15T15:43:32.505Z,21.10
2018-04-15T15:46:04.396Z,20.90
2018-04-15T15:48:36.265Z,20.80
2018-04-15T15:51:08.971Z,20.60
2018-04-15T15:53:40.841Z,20.50
2018-04-15T15:56:12.725Z,20.40
2018-04-15T15:58:44.592Z,20.40
2018-04-15T16:01:16.719Z,20.40
2018-04-15T16:03:48.609Z,20.40
2018-04-15T16:06:20.493Z,20.40
2018-04-15T16:08:52.374Z,20.40
2018-04-15T16:11:24.565Z,20.40
2018-04-15T16:13:56.446Z,20.50
2018-04-15T16:16:28.596Z,20.40
2018-04-15T16:19:00.477Z,20.40
2018-04-15T16:21:32.377Z,20.40
2018-04-15T16:24:04.265Z,20.40
2018-04-15T16:26:36.923Z,20.20
2018-04-15T16:29:08.811Z,20.20
2018-04-15T16:31:41.462Z,20.10
2018-04-15T16:34:13.370Z,20.10
2018-04-15T16:36:45.239Z,20.00
2018-04-15T16:39:17.382Z,19.90
2018-04-15T16:41:49.547Z,19.90
2018-04-15T16:44:21.446Z,19.90
2018-04-15T16:46:53.574Z,19.90
2018-04-15T16:49:25.462Z,19.80
2018-04-15T16:51:57.374Z,19.70
2018-04-15T16:54:30.029Z,19.60
2018-04-15T16:57:02.678Z,19.50
2018-04-15T16:59:34.669Z,19.50
2018-04-15T17:02:06.879Z,19.50
2018-04-15T17:04:38.755Z,19.40
2018-04-15T17:07:10.642Z,19.30
2018-04-15T17:09:42.527Z,19.30
2018-04-15T17:12:14.446Z,19.20
2018-04-15T17:14:46.318Z,19.20
2018-04-15T17:17:18.221Z,19.10
2018-04-15T17:19:50.861Z,18.90
2018-04-15T17:22:22.786Z,18.90
2018-04-15T17:24:55.410Z,18.80
2018-04-15T17:27:27.547Z,18.80
2018-04-15T17:29:59.398Z,18.70
2018-04-15T17:32:31.285Z,18.70
2018-04-15T17:35:03.154Z,18.70
2018-04-15T17:37:35.113Z,18.60
2018-04-15T17:40:07.067Z,18.50
2018-04-15T17:42:38.957Z,18.50
2018-04-15T17:45:10.851Z,18.40
2018-04-15T17:47:43.385Z,18.40
2018-04-15T17:50:15.257Z,18.30
2018-04-15T17:52:47.981Z,18.10
2018-04-15T17:55:19.816Z,18.10
2018-04-15T17:57:52.809Z,18.00
2018-04-15T18:00:24.973Z,18.00
2018-04-15T18:02:57.076Z,17.90
2018-04-15T18:05:29.252Z,17.90
2018-04-15T18:08:01.115Z,17.80
2018-04-15T18:10:33.002Z,17.70
2018-04-15T18:13:05.692Z,17.50
2018-04-15T18:15:38.325Z,17.50
2018-04-15T18:18:10.210Z,17.40
2018-04-15T18:20:42.094Z,17.40
2018-04-15T18:23:14.770Z,17.30
2018-04-15T18:25:47.705Z,17.20
2018-04-15T18:28:19.575Z,17.20
2018-04-15T18:30:51.451Z,17.20
2018-04-15T18:33:23.352Z,17.10
2018-04-15T18:35:55.220Z,17.00
2018-04-15T18:38:27.145Z,17.00
2018-04-15T18:40:59.782Z,16.80
2018-04-15T18:43:31.694Z,16.80
2018-04-15T18:46:04.335Z,16.70
2018-04-15T18:48:36.242Z,16.70
2018-04-15T18:51:08.886Z,16.60
2018-04-15T18:53:41.091Z,16.60
2018-04-15T18:56:12.962Z,16.50
2018-04-15T18:58:44.856Z,16.50
2018-04-15T19:01:16.743Z,16.50
2018-04-15T19:03:48.727Z,16.40
2018-04-15T19:06:21.461Z,16.40
2018-04-15T19:08:53.356Z,16.30
2018-04-15T19:11:25.997Z,16.30
2018-04-15T19:13:57.914Z,16.30
2018-04-15T19:16:29.863Z,16.20
2018-04-15T19:19:01.784Z,16.20
2018-04-15T19:21:34.010Z,16.10
2018-04-15T19:24:05.991Z,16.10
2018-04-15T19:26:37.875Z,16.10
2018-04-15T19:29:09.775Z,16.00
2018-04-15T19:31:42.430Z,16.00
2018-04-15T19:34:14.344Z,15.90
2018-04-15T19:36:46.253Z,15.90
2018-04-15T19:39:18.194Z,15.90
2018-04-15T19:41:50.122Z,15.90
2018-04-15T19:44:22.013Z,15.90
2018-04-15T19:46:53.891Z,15.90
2018-04-15T19:49:25.867Z,15.80
2018-04-15T19:51:57.703Z,15.80
2018-04-15T19:54:29.598Z,15.80
